Windom, Minnesota
Current Conditions -  °F | °C
As of 5:33 PM on Monday 20 Oct 2014 (Local Time) from KMWM Reporting Station
Clear Clear  
Wind Chill: 64°   Ceiling: Unl
Heat Index: 64°   Visibility: 10mi
Dew Point: 37°   Wind: 9mph
Humidity: 37%   Direction: 320°NW
Pressure: 30.03"   Gusts: NA
Location:  43.87°N, 95.12°W
Report Text: KMWM 202233Z AUTO 32008KT 10SM CLR 18/03 A3003 RMK AO2
Loading
Personal Weather Stations






























Interactive Weather Map
Tropical Storm Tracking
New forecast layout! Learn more

10-Day Weather Forecast

Advertisements
Track Severe Weather on mobile